sensor_id;sensor_type;location;lat;lon;timestamp;pressure;altitude;pressure_sealevel;temperature;humidity
44131;BME280;29792;48.726;9.248;2023-07-16T00:01:40;96776.03;;;21.22;100.00
44131;BME280;29792;48.726;9.248;2023-07-16T00:04:06;96778.41;;;21.17;100.00
44131;BME280;29792;48.726;9.248;2023-07-16T00:06:31;96786.59;;;21.14;100.00
44131;BME280;29792;48.726;9.248;2023-07-16T00:08:56;96784.38;;;21.11;100.00
44131;BME280;29792;48.726;9.248;2023-07-16T00:11:21;96750.31;;;21.06;100.00
44131;BME280;29792;48.726;9.248;2023-07-16T00:13:46;96773.50;;;21.01;100.00
44131;BME280;29792;48.726;9.248;2023-07-16T00:16:14;96770.50;;;20.98;100.00
44131;BME280;29792;48.726;9.248;2023-07-16T00:18:40;96764.69;;;20.95;100.00
44131;BME280;29792;48.726;9.248;2023-07-16T00:21:06;96771.47;;;20.90;100.00
44131;BME280;29792;48.726;9.248;2023-07-16T00:23:31;96760.81;;;20.85;100.00
44131;BME280;29792;48.726;9.248;2023-07-16T00:25:56;96773.03;;;20.84;100.00
44131;BME280;29792;48.726;9.248;2023-07-16T00:28:21;96776.66;;;20.83;100.00
44131;BME280;29792;48.726;9.248;2023-07-16T00:30:47;96777.44;;;20.84;100.00
44131;BME280;29792;48.726;9.248;2023-07-16T00:33:12;96792.69;;;20.87;100.00
44131;BME280;29792;48.726;9.248;2023-07-16T00:35:37;96798.50;;;20.89;100.00
44131;BME280;29792;48.726;9.248;2023-07-16T00:38:03;96798.31;;;20.90;100.00
44131;BME280;29792;48.726;9.248;2023-07-16T00:40:28;96793.91;;;20.91;100.00
44131;BME280;29792;48.726;9.248;2023-07-16T00:42:53;96799.94;;;20.91;100.00
44131;BME280;29792;48.726;9.248;2023-07-16T00:45:18;96793.50;;;20.94;100.00
44131;BME280;29792;48.726;9.248;2023-07-16T00:47:44;96802.13;;;20.94;100.00
44131;BME280;29792;48.726;9.248;2023-07-16T00:50:12;96806.34;;;20.95;100.00
44131;BME280;29792;48.726;9.248;2023-07-16T00:52:38;96788.91;;;20.96;100.00
44131;BME280;29792;48.726;9.248;2023-07-16T00:55:04;96780.72;;;20.99;100.00
44131;BME280;29792;48.726;9.248;2023-07-16T00:57:31;96809.56;;;20.98;100.00
44131;BME280;29792;48.726;9.248;2023-07-16T00:59:56;96804.38;;;20.98;100.00
44131;BME280;29792;48.726;9.248;2023-07-16T01:02:21;96791.53;;;20.96;100.00
44131;BME280;29792;48.726;9.248;2023-07-16T01:04:47;96787.94;;;20.97;100.00
44131;BME280;29792;48.726;9.248;2023-07-16T01:07:13;96799.97;;;20.98;100.00
44131;BME280;29792;48.726;9.248;2023-07-16T01:09:41;96806.97;;;20.98;100.00
44131;BME280;29792;48.726;9.248;2023-07-16T01:12:07;96817.56;;;20.96;100.00
44131;BME280;29792;48.726;9.248;2023-07-16T01:14:34;96812.75;;;20.93;100.00
44131;BME280;29792;48.726;9.248;2023-07-16T01:17:03;96815.75;;;20.90;100.00
44131;BME280;29792;48.726;9.248;2023-07-16T01:19:28;96830.38;;;20.91;100.00
44131;BME280;29792;48.726;9.248;2023-07-16T01:22:47;96835.78;;;20.89;100.00
44131;BME280;29792;48.726;9.248;2023-07-16T01:25:13;96839.38;;;20.88;100.00
44131;BME280;29792;48.726;9.248;2023-07-16T01:30:39;96826.69;;;20.79;100.00
44131;BME280;29792;48.726;9.248;2023-07-16T01:33:07;96828.88;;;20.75;100.00
44131;BME280;29792;48.726;9.248;2023-07-16T01:35:35;96837.88;;;20.73;100.00
44131;BME280;29792;48.726;9.248;2023-07-16T01:38:00;96837.44;;;20.69;100.00
44131;BME280;29792;48.726;9.248;2023-07-16T01:40:26;96844.03;;;20.65;100.00
44131;BME280;29792;48.726;9.248;2023-07-16T01:42:51;96852.22;;;20.62;100.00
44131;BME280;29792;48.726;9.248;2023-07-16T01:45:16;96841.13;;;20.53;100.00
44131;BME280;29792;48.726;9.248;2023-07-16T01:47:51;96834.09;;;20.47;100.00
44131;BME280;29792;48.726;9.248;2023-07-16T01:50:20;96837.28;;;20.43;100.00
44131;BME280;29792;48.726;9.248;2023-07-16T01:52:45;96836.22;;;20.37;100.00
44131;BME280;29792;48.726;9.248;2023-07-16T01:55:11;96824.56;;;20.33;100.00
44131;BME280;29792;48.726;9.248;2023-07-16T01:57:36;96813.88;;;20.28;100.00
44131;BME280;29792;48.726;9.248;2023-07-16T02:00:01;96841.28;;;20.24;100.00
44131;BME280;29792;48.726;9.248;2023-07-16T02:02:28;96825.63;;;20.17;100.00
44131;BME280;29792;48.726;9.248;2023-07-16T02:04:53;96822.41;;;20.15;100.00
44131;BME280;29792;48.726;9.248;2023-07-16T02:07:18;96835.59;;;20.14;100.00
44131;BME280;29792;48.726;9.248;2023-07-16T02:09:43;96832.34;;;20.12;100.00
44131;BME280;29792;48.726;9.248;2023-07-16T02:12:09;96836.34;;;20.08;100.00
44131;BME280;29792;48.726;9.248;2023-07-16T02:14:34;96829.69;;;20.05;100.00
44131;BME280;29792;48.726;9.248;2023-07-16T02:16:59;96821.09;;;20.05;100.00
44131;BME280;29792;48.726;9.248;2023-07-16T02:19:25;96817.88;;;20.03;100.00
44131;BME280;29792;48.726;9.248;2023-07-16T02:21:51;96826.06;;;20.00;100.00
44131;BME280;29792;48.726;9.248;2023-07-16T02:24:16;96853.22;;;19.97;100.00
44131;BME280;29792;48.726;9.248;2023-07-16T02:26:41;96873.63;;;19.94;100.00
44131;BME280;29792;48.726;9.248;2023-07-16T02:29:06;96865.19;;;19.92;100.00
44131;BME280;29792;48.726;9.248;2023-07-16T02:31:34;96843.13;;;19.88;100.00
44131;BME280;29792;48.726;9.248;2023-07-16T02:33:59;96834.91;;;19.84;100.00
44131;BME280;29792;48.726;9.248;2023-07-16T02:36:24;96825.06;;;19.79;100.00
44131;BME280;29792;48.726;9.248;2023-07-16T02:38:49;96861.19;;;19.74;100.00
44131;BME280;29792;48.726;9.248;2023-07-16T02:41:15;96888.53;;;19.70;100.00
44131;BME280;29792;48.726;9.248;2023-07-16T02:43:40;96876.28;;;19.64;100.00
44131;BME280;29792;48.726;9.248;2023-07-16T02:46:05;96865.81;;;19.58;100.00
44131;BME280;29792;48.726;9.248;2023-07-16T02:48:30;96881.97;;;19.53;100.00
44131;BME280;29792;48.726;9.248;2023-07-16T02:50:56;96878.28;;;19.48;100.00
44131;BME280;29792;48.726;9.248;2023-07-16T02:53:21;96885.78;;;19.42;100.00
44131;BME280;29792;48.726;9.248;2023-07-16T02:55:46;96883.72;;;19.38;100.00
44131;BME280;29792;48.726;9.248;2023-07-16T02:58:12;96885.09;;;19.34;100.00
44131;BME280;29792;48.726;9.248;2023-07-16T03:00:37;96883.81;;;19.30;100.00
44131;BME280;29792;48.726;9.248;2023-07-16T03:03:02;96881.59;;;19.27;100.00
44131;BME280;29792;48.726;9.248;2023-07-16T03:05:28;96883.72;;;19.23;100.00
44131;BME280;29792;48.726;9.248;2023-07-16T03:07:53;96893.06;;;19.18;100.00
44131;BME280;29792;48.726;9.248;2023-07-16T03:10:20;96907.75;;;19.11;100.00
44131;BME280;29792;48.726;9.248;2023-07-16T03:12:45;96880.72;;;19.05;100.00
44131;BME280;29792;48.726;9.248;2023-07-16T03:15:11;96873.44;;;19.00;100.00
44131;BME280;29792;48.726;9.248;2023-07-16T03:17:36;96883.56;;;18.95;100.00
44131;BME280;29792;48.726;9.248;2023-07-16T03:20:02;96910.22;;;18.89;100.00
44131;BME280;29792;48.726;9.248;2023-07-16T03:22:30;96921.78;;;18.87;100.00
44131;BME280;29792;48.726;9.248;2023-07-16T03:24:55;96926.69;;;18.82;100.00
44131;BME280;29792;48.726;9.248;2023-07-16T03:27:21;96944.41;;;18.78;100.00
44131;BME280;29792;48.726;9.248;2023-07-16T03:29:47;96949.13;;;18.75;100.00
44131;BME280;29792;48.726;9.248;2023-07-16T03:32:12;96931.34;;;18.72;100.00
44131;BME280;29792;48.726;9.248;2023-07-16T03:34:37;96928.91;;;18.70;100.00
44131;BME280;29792;48.726;9.248;2023-07-16T03:37:02;96935.06;;;18.69;100.00
44131;BME280;29792;48.726;9.248;2023-07-16T03:39:28;96936.69;;;18.70;100.00
44131;BME280;29792;48.726;9.248;2023-07-16T03:41:53;96924.69;;;18.69;100.00
44131;BME280;29792;48.726;9.248;2023-07-16T03:44:18;96951.63;;;18.68;100.00
44131;BME280;29792;48.726;9.248;2023-07-16T03:46:43;96949.19;;;18.66;100.00
44131;BME280;29792;48.726;9.248;2023-07-16T03:49:09;96944.19;;;18.65;100.00
44131;BME280;29792;48.726;9.248;2023-07-16T03:51:34;96966.94;;;18.63;100.00
44131;BME280;29792;48.726;9.248;2023-07-16T03:53:59;96963.84;;;18.59;100.00
44131;BME280;29792;48.726;9.248;2023-07-16T03:56:25;96962.25;;;18.58;100.00
44131;BME280;29792;48.726;9.248;2023-07-16T03:58:50;96975.38;;;18.57;100.00
44131;BME280;29792;48.726;9.248;2023-07-16T04:01:15;96977.97;;;18.57;100.00
44131;BME280;29792;48.726;9.248;2023-07-16T04:03:40;96976.19;;;18.57;100.00
44131;BME280;29792;48.726;9.248;2023-07-16T04:06:07;96986.09;;;18.54;100.00
44131;BME280;29792;48.726;9.248;2023-07-16T04:08:34;96979.94;;;18.55;100.00
44131;BME280;29792;48.726;9.248;2023-07-16T04:10:59;96974.91;;;18.53;100.00
44131;BME280;29792;48.726;9.248;2023-07-16T04:13:25;96968.91;;;18.53;100.00
44131;BME280;29792;48.726;9.248;2023-07-16T04:15:50;96969.72;;;18.53;100.00
44131;BME280;29792;48.726;9.248;2023-07-16T04:18:18;96966.31;;;18.53;100.00
44131;BME280;29792;48.726;9.248;2023-07-16T04:20:43;96961.75;;;18.55;100.00
44131;BME280;29792;48.726;9.248;2023-07-16T04:23:08;96951.38;;;18.55;100.00
44131;BME280;29792;48.726;9.248;2023-07-16T04:25:34;96955.59;;;18.56;100.00
44131;BME280;29792;48.726;9.248;2023-07-16T04:27:59;96969.03;;;18.59;100.00
44131;BME280;29792;48.726;9.248;2023-07-16T04:30:24;96968.88;;;18.61;100.00
44131;BME280;29792;48.726;9.248;2023-07-16T04:32:49;96974.72;;;18.63;100.00
44131;BME280;29792;48.726;9.248;2023-07-16T04:35:15;96995.31;;;18.64;100.00
44131;BME280;29792;48.726;9.248;2023-07-16T04:37:40;97008.88;;;18.66;100.00
44131;BME280;29792;48.726;9.248;2023-07-16T04:40:06;97007.09;;;18.67;100.00
44131;BME280;29792;48.726;9.248;2023-07-16T04:42:31;97018.47;;;18.66;100.00
44131;BME280;29792;48.726;9.248;2023-07-16T04:44:56;97009.69;;;18.67;100.00
44131;BME280;29792;48.726;9.248;2023-07-16T04:47:22;97016.50;;;18.68;100.00
44131;BME280;29792;48.726;9.248;2023-07-16T04:49:47;97010.34;;;18.69;100.00
44131;BME280;29792;48.726;9.248;2023-07-16T04:52:13;97004.97;;;18.71;100.00
44131;BME280;29792;48.726;9.248;2023-07-16T04:54:38;97002.22;;;18.72;100.00
44131;BME280;29792;48.726;9.248;2023-07-16T04:57:05;97003.81;;;18.73;100.00
44131;BME280;29792;48.726;9.248;2023-07-16T04:59:31;96999.25;;;18.75;100.00
44131;BME280;29792;48.726;9.248;2023-07-16T05:01:56;97001.84;;;18.75;100.00
44131;BME280;29792;48.726;9.248;2023-07-16T05:04:21;97007.41;;;18.72;100.00
44131;BME280;29792;48.726;9.248;2023-07-16T05:06:46;97028.50;;;18.69;100.00
44131;BME280;29792;48.726;9.248;2023-07-16T05:09:12;97029.19;;;18.63;100.00
44131;BME280;29792;48.726;9.248;2023-07-16T05:11:37;97025.00;;;18.62;100.00
44131;BME280;29792;48.726;9.248;2023-07-16T05:14:03;97024.34;;;18.60;100.00
44131;BME280;29792;48.726;9.248;2023-07-16T05:16:28;97023.38;;;18.61;100.00
44131;BME280;29792;48.726;9.248;2023-07-16T05:18:54;97023.53;;;18.59;100.00
44131;BME280;29792;48.726;9.248;2023-07-16T05:21:19;97031.31;;;18.59;100.00
44131;BME280;29792;48.726;9.248;2023-07-16T05:23:44;97028.72;;;18.59;100.00
44131;BME280;29792;48.726;9.248;2023-07-16T05:26:09;97037.50;;;18.58;100.00
44131;BME280;29792;48.726;9.248;2023-07-16T05:28:35;97029.09;;;18.56;100.00
44131;BME280;29792;48.726;9.248;2023-07-16T05:31:02;97017.88;;;18.56;100.00
44131;BME280;29792;48.726;9.248;2023-07-16T05:33:27;97023.91;;;18.56;100.00
44131;BME280;29792;48.726;9.248;2023-07-16T05:35:53;97028.88;;;18.58;100.00
44131;BME280;29792;48.726;9.248;2023-07-16T05:38:18;97041.06;;;18.57;100.00
44131;BME280;29792;48.726;9.248;2023-07-16T05:40:43;97045.44;;;18.57;100.00
44131;BME280;29792;48.726;9.248;2023-07-16T05:43:09;97038.63;;;18.56;100.00
44131;BME280;29792;48.726;9.248;2023-07-16T05:45:34;97059.38;;;18.56;100.00
44131;BME280;29792;48.726;9.248;2023-07-16T05:47:59;97049.84;;;18.56;100.00
44131;BME280;29792;48.726;9.248;2023-07-16T05:50:24;97068.78;;;18.57;100.00
44131;BME280;29792;48.726;9.248;2023-07-16T05:52:50;97055.81;;;18.57;100.00
44131;BME280;29792;48.726;9.248;2023-07-16T05:55:15;97054.66;;;18.59;100.00
44131;BME280;29792;48.726;9.248;2023-07-16T05:57:40;97047.53;;;18.61;100.00
44131;BME280;29792;48.726;9.248;2023-07-16T06:00:06;97046.41;;;18.64;100.00
44131;BME280;29792;48.726;9.248;2023-07-16T06:02:32;97050.88;;;18.70;100.00
44131;BME280;29792;48.726;9.248;2023-07-16T06:04:57;97041.97;;;18.73;100.00
44131;BME280;29792;48.726;9.248;2023-07-16T06:07:22;97051.16;;;18.75;100.00
44131;BME280;29792;48.726;9.248;2023-07-16T06:09:47;97049.84;;;18.79;100.00
44131;BME280;29792;48.726;9.248;2023-07-16T06:12:13;97046.28;;;18.80;100.00
44131;BME280;29792;48.726;9.248;2023-07-16T06:14:39;97047.09;;;18.81;100.00
44131;BME280;29792;48.726;9.248;2023-07-16T06:17:04;97059.88;;;18.82;100.00
44131;BME280;29792;48.726;9.248;2023-07-16T06:19:30;97064.25;;;18.82;100.00
44131;BME280;29792;48.726;9.248;2023-07-16T06:21:55;97072.25;;;18.80;100.00
44131;BME280;29792;48.726;9.248;2023-07-16T06:24:20;97082.63;;;18.80;100.00
44131;BME280;29792;48.726;9.248;2023-07-16T06:26:46;97063.44;;;18.81;100.00
44131;BME280;29792;48.726;9.248;2023-07-16T06:29:12;97057.47;;;18.81;100.00
44131;BME280;29792;48.726;9.248;2023-07-16T06:31:38;97057.63;;;18.79;100.00
44131;BME280;29792;48.726;9.248;2023-07-16T06:34:03;97064.44;;;18.80;100.00
44131;BME280;29792;48.726;9.248;2023-07-16T06:36:29;97043.47;;;18.82;100.00
44131;BME280;29792;48.726;9.248;2023-07-16T06:38:54;97048.50;;;18.83;100.00
44131;BME280;29792;48.726;9.248;2023-07-16T06:41:19;97043.78;;;18.87;100.00
44131;BME280;29792;48.726;9.248;2023-07-16T06:43:44;97051.59;;;18.87;100.00
44131;BME280;29792;48.726;9.248;2023-07-16T06:46:10;97047.81;;;18.89;100.00
44131;BME280;29792;48.726;9.248;2023-07-16T06:48:35;97045.84;;;18.91;100.00
44131;BME280;29792;48.726;9.248;2023-07-16T06:51:00;97042.91;;;18.94;100.00
44131;BME280;29792;48.726;9.248;2023-07-16T06:53:25;97050.34;;;18.97;100.00
44131;BME280;29792;48.726;9.248;2023-07-16T06:55:51;97043.03;;;19.01;100.00
44131;BME280;29792;48.726;9.248;2023-07-16T06:58:16;97053.88;;;19.04;100.00
44131;BME280;29792;48.726;9.248;2023-07-16T07:00:41;97060.34;;;19.09;100.00
44131;BME280;29792;48.726;9.248;2023-07-16T07:03:07;97060.00;;;19.12;100.00
44131;BME280;29792;48.726;9.248;2023-07-16T07:05:32;97069.03;;;19.16;100.00
44131;BME280;29792;48.726;9.248;2023-07-16T07:07:57;97067.25;;;19.16;100.00
44131;BME280;29792;48.726;9.248;2023-07-16T07:10:22;97067.88;;;19.18;100.00
44131;BME280;29792;48.726;9.248;2023-07-16T07:12:48;97062.78;;;19.25;100.00
44131;BME280;29792;48.726;9.248;2023-07-16T07:15:13;97062.88;;;19.31;100.00
44131;BME280;29792;48.726;9.248;2023-07-16T07:17:39;97046.78;;;19.36;100.00
44131;BME280;29792;48.726;9.248;2023-07-16T07:20:05;97044.94;;;19.44;100.00
44131;BME280;29792;48.726;9.248;2023-07-16T07:22:31;97053.66;;;19.52;100.00
44131;BME280;29792;48.726;9.248;2023-07-16T07:24:57;97048.38;;;19.60;100.00
44131;BME280;29792;48.726;9.248;2023-07-16T07:27:22;97037.06;;;19.67;100.00
44131;BME280;29792;48.726;9.248;2023-07-16T07:29:47;97045.44;;;19.77;100.00
44131;BME280;29792;48.726;9.248;2023-07-16T07:32:16;97047.94;;;19.86;100.00
44131;BME280;29792;48.726;9.248;2023-07-16T07:34:42;97049.19;;;19.90;100.00
44131;BME280;29792;48.726;9.248;2023-07-16T07:37:07;97066.03;;;19.94;100.00
44131;BME280;29792;48.726;9.248;2023-07-16T07:39:33;97065.25;;;19.93;100.00
44131;BME280;29792;48.726;9.248;2023-07-16T07:41:59;97076.44;;;19.94;100.00
44131;BME280;29792;48.726;9.248;2023-07-16T07:44:24;97074.44;;;19.96;100.00
44131;BME280;29792;48.726;9.248;2023-07-16T07:46:49;97069.44;;;19.94;100.00
44131;BME280;29792;48.726;9.248;2023-07-16T07:49:14;97064.78;;;19.90;100.00
44131;BME280;29792;48.726;9.248;2023-07-16T07:51:40;97076.63;;;19.92;100.00
44131;BME280;29792;48.726;9.248;2023-07-16T07:54:05;97071.59;;;19.91;99.65
44131;BME280;29792;48.726;9.248;2023-07-16T07:56:30;97066.75;;;19.88;97.44
44131;BME280;29792;48.726;9.248;2023-07-16T07:58:56;97075.81;;;19.92;97.63
44131;BME280;29792;48.726;9.248;2023-07-16T08:01:21;97071.84;;;19.96;98.38
44131;BME280;29792;48.726;9.248;2023-07-16T08:03:46;97077.16;;;20.02;98.61
44131;BME280;29792;48.726;9.248;2023-07-16T08:06:11;97092.22;;;20.07;97.80
44131;BME280;29792;48.726;9.248;2023-07-16T08:08:37;97098.66;;;20.11;97.58
44131;BME280;29792;48.726;9.248;2023-07-16T08:11:03;97089.53;;;20.15;98.53
44131;BME280;29792;48.726;9.248;2023-07-16T08:13:28;97083.84;;;20.11;96.87
44131;BME280;29792;48.726;9.248;2023-07-16T08:15:53;97088.88;;;20.13;95.89
44131;BME280;29792;48.726;9.248;2023-07-16T08:18:18;97094.97;;;20.20;97.58
44131;BME280;29792;48.726;9.248;2023-07-16T08:20:44;97096.50;;;20.29;97.02
44131;BME280;29792;48.726;9.248;2023-07-16T08:23:09;97088.44;;;20.39;96.04
44131;BME280;29792;48.726;9.248;2023-07-16T08:25:34;97085.38;;;20.50;96.01
44131;BME280;29792;48.726;9.248;2023-07-16T08:28:02;97085.06;;;20.60;96.24
44131;BME280;29792;48.726;9.248;2023-07-16T08:30:27;97082.97;;;20.70;95.17
44131;BME280;29792;48.726;9.248;2023-07-16T08:32:53;97071.22;;;20.74;93.50
44131;BME280;29792;48.726;9.248;2023-07-16T08:35:18;97065.25;;;20.80;93.67
44131;BME280;29792;48.726;9.248;2023-07-16T08:37:45;97060.91;;;20.87;94.60
44131;BME280;29792;48.726;9.248;2023-07-16T08:40:11;97062.34;;;20.89;92.98
44131;BME280;29792;48.726;9.248;2023-07-16T08:42:38;97066.38;;;20.92;92.47
44131;BME280;29792;48.726;9.248;2023-07-16T08:45:06;97083.69;;;21.00;91.54
44131;BME280;29792;48.726;9.248;2023-07-16T08:47:33;97077.47;;;21.01;90.17
44131;BME280;29792;48.726;9.248;2023-07-16T08:49:59;97091.56;;;21.06;90.86
44131;BME280;29792;48.726;9.248;2023-07-16T08:52:27;97087.34;;;21.05;88.13
44131;BME280;29792;48.726;9.248;2023-07-16T08:54:52;97086.97;;;21.08;87.78
44131;BME280;29792;48.726;9.248;2023-07-16T08:57:18;97095.41;;;21.10;88.87
44131;BME280;29792;48.726;9.248;2023-07-16T08:59:50;97090.63;;;21.14;88.50
44131;BME280;29792;48.726;9.248;2023-07-16T09:02:17;97085.25;;;21.15;88.31
44131;BME280;29792;48.726;9.248;2023-07-16T09:04:43;97080.47;;;21.19;87.15
44131;BME280;29792;48.726;9.248;2023-07-16T09:07:09;97081.34;;;21.26;85.76
44131;BME280;29792;48.726;9.248;2023-07-16T09:09:34;97102.00;;;21.27;84.12
44131;BME280;29792;48.726;9.248;2023-07-16T09:11:59;97088.22;;;21.33;85.82
44131;BME280;29792;48.726;9.248;2023-07-16T09:14:25;97100.97;;;21.50;88.45
44131;BME280;29792;48.726;9.248;2023-07-16T09:16:51;97093.06;;;21.64;86.86
44131;BME280;29792;48.726;9.248;2023-07-16T09:19:17;97076.50;;;21.79;86.56
44131;BME280;29792;48.726;9.248;2023-07-16T09:21:46;97094.03;;;21.91;86.29
44131;BME280;29792;48.726;9.248;2023-07-16T09:26:47;97085.56;;;22.11;81.52
44131;BME280;29792;48.726;9.248;2023-07-16T09:29:13;97086.59;;;22.23;82.35
44131;BME280;29792;48.726;9.248;2023-07-16T09:31:51;97084.66;;;22.38;83.28
44131;BME280;29792;48.726;9.248;2023-07-16T09:34:17;97081.91;;;22.53;83.99
44131;BME280;29792;48.726;9.248;2023-07-16T09:36:42;97079.53;;;22.64;81.66
44131;BME280;29792;48.726;9.248;2023-07-16T09:39:07;97085.84;;;22.76;82.97
44131;BME280;29792;48.726;9.248;2023-07-16T09:41:33;97086.03;;;22.88;80.51
44131;BME280;29792;48.726;9.248;2023-07-16T09:43:59;97089.69;;;23.00;81.39
44131;BME280;29792;48.726;9.248;2023-07-16T09:46:24;97086.88;;;23.08;76.94
44131;BME280;29792;48.726;9.248;2023-07-16T09:48:50;97088.28;;;23.11;76.37
44131;BME280;29792;48.726;9.248;2023-07-16T09:51:15;97085.28;;;23.20;80.07
44131;BME280;29792;48.726;9.248;2023-07-16T09:53:42;97095.75;;;23.34;81.03
44131;BME280;29792;48.726;9.248;2023-07-16T09:56:11;97085.28;;;23.40;75.79
44131;BME280;29792;48.726;9.248;2023-07-16T09:58:37;97084.09;;;23.43;74.30
44131;BME280;29792;48.726;9.248;2023-07-16T10:01:03;97074.41;;;23.43;73.28
44131;BME280;29792;48.726;9.248;2023-07-16T10:03:29;97074.22;;;23.45;72.59
44131;BME280;29792;48.726;9.248;2023-07-16T10:06:05;97072.41;;;23.45;72.76
44131;BME280;29792;48.726;9.248;2023-07-16T10:08:33;97067.00;;;23.53;72.77
44131;BME280;29792;48.726;9.248;2023-07-16T10:11:02;97089.31;;;23.63;75.30
44131;BME280;29792;48.726;9.248;2023-07-16T10:13:27;97079.63;;;23.76;74.84
44131;BME280;29792;48.726;9.248;2023-07-16T10:15:55;97084.47;;;23.86;73.08
44131;BME280;29792;48.726;9.248;2023-07-16T10:18:29;97077.19;;;23.94;72.28
44131;BME280;29792;48.726;9.248;2023-07-16T10:21:04;97082.41;;;24.01;69.77
44131;BME280;29792;48.726;9.248;2023-07-16T10:23:39;97073.97;;;23.99;68.63
44131;BME280;29792;48.726;9.248;2023-07-16T10:26:05;97079.19;;;24.06;69.79
44131;BME280;29792;48.726;9.248;2023-07-16T10:28:32;97090.03;;;24.09;68.43
44131;BME280;29792;48.726;9.248;2023-07-16T10:30:58;97081.16;;;24.10;65.88
44131;BME280;29792;48.726;9.248;2023-07-16T10:33:23;97080.34;;;24.16;68.17
44131;BME280;29792;48.726;9.248;2023-07-16T10:35:48;97070.28;;;24.20;67.18
44131;BME280;29792;48.726;9.248;2023-07-16T10:38:14;97060.81;;;24.25;67.18
44131;BME280;29792;48.726;9.248;2023-07-16T10:40:40;97077.13;;;24.27;64.56
44131;BME280;29792;48.726;9.248;2023-07-16T10:43:06;97070.28;;;24.26;65.83
44131;BME280;29792;48.726;9.248;2023-07-16T10:45:31;97064.03;;;24.27;65.21
44131;BME280;29792;48.726;9.248;2023-07-16T10:47:56;97063.41;;;24.25;62.98
44131;BME280;29792;48.726;9.248;2023-07-16T10:50:22;97062.00;;;24.16;62.32
44131;BME280;29792;48.726;9.248;2023-07-16T10:52:53;97054.00;;;24.11;64.25
44131;BME280;29792;48.726;9.248;2023-07-16T10:55:19;97061.81;;;24.18;68.03
44131;BME280;29792;48.726;9.248;2023-07-16T10:57:47;97060.00;;;24.31;69.65
44131;BME280;29792;48.726;9.248;2023-07-16T11:00:14;97060.13;;;24.43;66.36
44131;BME280;29792;48.726;9.248;2023-07-16T11:02:40;97055.88;;;24.49;64.46
44131;BME280;29792;48.726;9.248;2023-07-16T11:05:09;97057.47;;;24.50;65.56
44131;BME280;29792;48.726;9.248;2023-07-16T11:07:34;97068.56;;;24.52;66.19
44131;BME280;29792;48.726;9.248;2023-07-16T11:10:00;97063.91;;;24.54;66.86
44131;BME280;29792;48.726;9.248;2023-07-16T11:12:27;97072.94;;;24.58;63.76
44131;BME280;29792;48.726;9.248;2023-07-16T11:14:54;97063.22;;;24.65;65.35
44131;BME280;29792;48.726;9.248;2023-07-16T11:17:20;97072.25;;;24.76;65.83
44131;BME280;29792;48.726;9.248;2023-07-16T11:19:49;97057.50;;;24.81;63.45
44131;BME280;29792;48.726;9.248;2023-07-16T11:22:15;97063.94;;;24.85;59.17
44131;BME280;29792;48.726;9.248;2023-07-16T11:24:42;97059.69;;;24.84;58.95
44131;BME280;29792;48.726;9.248;2023-07-16T11:27:22;97059.91;;;24.83;57.07
44131;BME280;29792;48.726;9.248;2023-07-16T11:29:50;97057.88;;;24.85;58.65
44131;BME280;29792;48.726;9.248;2023-07-16T11:35:03;97061.91;;;24.94;57.81
44131;BME280;29792;48.726;9.248;2023-07-16T11:37:30;97055.19;;;24.98;60.80
44131;BME280;29792;48.726;9.248;2023-07-16T11:40:06;97051.34;;;25.00;60.09
44131;BME280;29792;48.726;9.248;2023-07-16T11:42:38;97059.44;;;24.99;58.49
44131;BME280;29792;48.726;9.248;2023-07-16T11:45:04;97056.66;;;24.94;60.06
44131;BME280;29792;48.726;9.248;2023-07-16T11:47:31;97056.66;;;24.87;60.06
44131;BME280;29792;48.726;9.248;2023-07-16T11:49:57;97048.63;;;24.82;59.64
44131;BME280;29792;48.726;9.248;2023-07-16T11:52:25;97044.22;;;24.76;57.59
44131;BME280;29792;48.726;9.248;2023-07-16T11:54:54;97046.69;;;24.71;58.75
44131;BME280;29792;48.726;9.248;2023-07-16T11:57:19;97043.47;;;24.69;59.71
44131;BME280;29792;48.726;9.248;2023-07-16T11:59:45;97046.69;;;24.71;60.76
44131;BME280;29792;48.726;9.248;2023-07-16T12:02:11;97041.00;;;24.81;61.98
44131;BME280;29792;48.726;9.248;2023-07-16T12:04:37;97033.28;;;24.86;58.40
44131;BME280;29792;48.726;9.248;2023-07-16T12:07:02;97035.47;;;24.95;60.50
44131;BME280;29792;48.726;9.248;2023-07-16T12:09:28;97035.22;;;25.03;61.77
44131;BME280;29792;48.726;9.248;2023-07-16T12:11:53;97033.16;;;25.05;61.45
44131;BME280;29792;48.726;9.248;2023-07-16T12:14:18;97022.63;;;25.12;61.81
44131;BME280;29792;48.726;9.248;2023-07-16T12:16:44;97017.69;;;25.22;61.53
44131;BME280;29792;48.726;9.248;2023-07-16T12:19:09;97016.06;;;25.28;60.19
44131;BME280;29792;48.726;9.248;2023-07-16T12:21:35;97008.31;;;25.33;56.26
44131;BME280;29792;48.726;9.248;2023-07-16T12:24:00;97007.91;;;25.36;58.29
44131;BME280;29792;48.726;9.248;2023-07-16T12:26:25;97004.19;;;25.43;57.60
44131;BME280;29792;48.726;9.248;2023-07-16T12:28:51;97000.50;;;25.51;58.62
44131;BME280;29792;48.726;9.248;2023-07-16T12:31:16;97001.03;;;25.60;58.96
44131;BME280;29792;48.726;9.248;2023-07-16T12:33:42;96996.31;;;25.68;58.24
44131;BME280;29792;48.726;9.248;2023-07-16T12:36:08;97001.84;;;25.78;57.44
44131;BME280;29792;48.726;9.248;2023-07-16T12:38:33;96998.34;;;25.84;57.74
44131;BME280;29792;48.726;9.248;2023-07-16T12:40:58;96988.19;;;25.88;53.96
44131;BME280;29792;48.726;9.248;2023-07-16T12:43:24;96995.66;;;25.91;55.32
44131;BME280;29792;48.726;9.248;2023-07-16T12:45:49;96998.84;;;25.93;54.43
44131;BME280;29792;48.726;9.248;2023-07-16T12:48:14;96997.84;;;25.94;52.95
44131;BME280;29792;48.726;9.248;2023-07-16T12:50:39;97001.84;;;25.97;55.08
44131;BME280;29792;48.726;9.248;2023-07-16T12:53:05;96996.16;;;26.00;56.17
44131;BME280;29792;48.726;9.248;2023-07-16T12:55:30;97001.91;;;26.08;57.16
44131;BME280;29792;48.726;9.248;2023-07-16T12:57:56;96999.41;;;26.13;56.93